Terminal Aerodrome Forecast
Issued by NWS Newport/Morehead City, NC

Home | Current Version | Previous Version | Text Only | Print | Product List | Glossary On
Versions: 1 2 3 4 5 6 7 8 9 10 11 12 13 14 15
000
FTUS42 KMHX 241157 CCA
TAFEWN
TAF COR
KEWN 241157Z 2412/2512 11016G24KT 3SM +RA VCTS BKN012CB
      TEMPO 2413/2417 BKN009CB
     FM241800 13014G27KT 6SM -RA VCTS OVC012CB
     FM250000 15010KT P6SM BKN250=

USA.gov is the U.S. government's official web portal to all federal, state and local government web resources and services.